createdAt,value
2018-07-11T00:01:55.762Z,99.90
2018-07-11T00:04:23.903Z,99.90
2018-07-11T00:06:52.044Z,99.90
2018-07-11T00:09:20.147Z,99.90
2018-07-11T00:11:48.275Z,99.90
2018-07-11T00:16:49.663Z,99.90
2018-07-11T00:19:17.763Z,99.90
2018-07-11T00:21:45.893Z,99.90
2018-07-11T00:24:14.000Z,99.90
2018-07-11T00:26:42.115Z,99.90
2018-07-11T00:29:10.222Z,99.90
2018-07-11T00:31:38.339Z,99.90
2018-07-11T00:34:06.462Z,99.90
2018-07-11T00:36:34.572Z,99.90
2018-07-11T00:39:02.676Z,99.90
2018-07-11T00:41:30.792Z,99.90
2018-07-11T00:43:58.907Z,99.90
2018-07-11T00:46:27.020Z,99.90
2018-07-11T00:48:55.133Z,99.90
2018-07-11T00:51:23.251Z,99.90
2018-07-11T00:53:51.360Z,99.90
2018-07-11T00:56:19.468Z,99.90
2018-07-11T00:58:51.288Z,99.90
2018-07-11T01:01:20.283Z,99.90
2018-07-11T01:03:52.180Z,99.90
2018-07-11T01:06:20.386Z,99.90
2018-07-11T01:08:56.331Z,99.90
2018-07-11T01:11:25.100Z,99.90
2018-07-11T01:13:53.539Z,99.90
2018-07-11T01:16:23.009Z,99.90
2018-07-11T01:18:55.729Z,99.90
2018-07-11T01:21:23.947Z,99.90
2018-07-11T01:23:52.067Z,99.90
2018-07-11T01:26:23.880Z,99.90
2018-07-11T01:28:51.975Z,99.90
2018-07-11T01:31:20.100Z,99.90
2018-07-11T01:33:48.205Z,99.90
2018-07-11T01:41:12.331Z,99.90
2018-07-11T01:43:40.474Z,99.90
2018-07-11T01:46:08.615Z,99.90
2018-07-11T01:48:36.750Z,99.90
2018-07-11T01:51:04.995Z,99.90
2018-07-11T01:53:33.142Z,99.90
2018-07-11T01:56:01.262Z,99.90
2018-07-11T01:58:29.410Z,99.90
2018-07-11T02:00:57.541Z,99.90
2018-07-11T02:03:25.678Z,99.90
2018-07-11T02:08:22.887Z,99.90
2018-07-11T02:10:51.251Z,99.90
2018-07-11T02:13:19.379Z,99.90
2018-07-11T02:15:48.672Z,99.90
2018-07-11T02:18:19.890Z,99.90
2018-07-11T02:20:48.028Z,99.90
2018-07-11T02:23:16.555Z,99.90
2018-07-11T02:25:44.670Z,99.90
2018-07-11T02:28:12.806Z,99.90
2018-07-11T02:30:41.143Z,99.90
2018-07-11T02:33:09.307Z,99.90
2018-07-11T02:35:37.431Z,99.90
2018-07-11T02:38:05.559Z,99.90
2018-07-11T02:40:33.688Z,99.90
2018-07-11T02:43:01.819Z,99.90
2018-07-11T02:45:29.972Z,99.90
2018-07-11T02:47:58.129Z,99.90
2018-07-11T02:52:54.181Z,99.90
2018-07-11T02:55:22.295Z,99.90
2018-07-11T02:57:50.437Z,99.90
2018-07-11T03:00:18.566Z,99.90
2018-07-11T03:02:46.711Z,99.90
2018-07-11T03:05:14.838Z,99.90
2018-07-11T03:07:42.978Z,99.90
2018-07-11T03:10:11.111Z,99.90
2018-07-11T03:12:39.266Z,99.90
2018-07-11T03:15:07.402Z,99.90
2018-07-11T03:17:35.549Z,99.90
2018-07-11T03:20:03.701Z,99.90
2018-07-11T03:22:31.835Z,99.90
2018-07-11T03:27:27.930Z,99.90
2018-07-11T03:29:56.059Z,99.90
2018-07-11T03:34:52.097Z,99.90
2018-07-11T03:37:20.221Z,99.90
2018-07-11T03:39:48.354Z,99.90
2018-07-11T03:42:16.480Z,99.90
2018-07-11T03:44:44.633Z,99.90
2018-07-11T03:47:12.783Z,99.90
2018-07-11T03:49:40.919Z,99.90
2018-07-11T03:52:09.074Z,99.90
2018-07-11T03:54:37.219Z,99.90
2018-07-11T03:57:05.350Z,99.90
2018-07-11T03:59:33.487Z,99.90
2018-07-11T04:02:01.627Z,99.90
2018-07-11T04:04:29.767Z,99.90
2018-07-11T04:06:57.905Z,99.90
2018-07-11T04:09:26.055Z,99.90
2018-07-11T04:11:54.357Z,99.90
2018-07-11T04:14:22.495Z,99.90
2018-07-11T04:16:50.650Z,99.90
2018-07-11T04:19:18.804Z,99.90
2018-07-11T04:24:14.903Z,99.90
2018-07-11T04:26:43.046Z,99.90
2018-07-11T04:29:11.183Z,99.90
2018-07-11T04:31:39.302Z,99.90
2018-07-11T04:34:07.548Z,99.90
2018-07-11T04:36:35.666Z,99.90
2018-07-11T04:39:04.598Z,99.90
2018-07-11T04:41:32.762Z,99.90
2018-07-11T04:44:00.904Z,99.90
2018-07-11T04:46:29.023Z,99.90
2018-07-11T04:51:25.233Z,99.90
2018-07-11T04:53:54.410Z,99.90
2018-07-11T04:56:22.537Z,99.90
2018-07-11T04:58:50.702Z,99.90
2018-07-11T05:01:18.802Z,99.90
2018-07-11T05:03:46.946Z,99.90
2018-07-11T05:08:43.039Z,99.90
2018-07-11T05:11:11.218Z,99.90
2018-07-11T05:13:39.306Z,99.90
2018-07-11T05:16:07.497Z,99.90
2018-07-11T05:18:35.591Z,99.90
2018-07-11T05:23:31.686Z,99.90
2018-07-11T05:25:59.816Z,99.90
2018-07-11T05:28:27.934Z,99.90
2018-07-11T05:30:56.074Z,99.90
2018-07-11T05:33:24.216Z,99.90
2018-07-11T05:35:52.385Z,99.90
2018-07-11T05:38:20.504Z,99.90
2018-07-11T05:40:48.635Z,99.90
2018-07-11T05:43:16.774Z,99.90
2018-07-11T05:45:44.927Z,99.90
2018-07-11T05:48:13.069Z,99.90
2018-07-11T05:50:41.379Z,99.90
2018-07-11T05:53:09.586Z,99.90
2018-07-11T05:55:37.767Z,99.90
2018-07-11T05:58:05.959Z,99.90
2018-07-11T06:03:02.279Z,99.90
2018-07-11T06:05:30.485Z,99.90
2018-07-11T06:07:58.552Z,99.90
2018-07-11T06:12:54.602Z,99.90
2018-07-11T06:15:22.742Z,99.90
2018-07-11T06:17:50.870Z,99.90
2018-07-11T06:20:19.019Z,99.90
2018-07-11T06:22:47.138Z,99.90
2018-07-11T06:25:15.348Z,99.90
2018-07-11T06:30:11.471Z,99.90
2018-07-11T06:32:39.621Z,99.90
2018-07-11T06:35:07.738Z,99.90
2018-07-11T06:37:35.858Z,99.90
2018-07-11T06:40:04.020Z,99.90
2018-07-11T06:42:32.158Z,99.90
2018-07-11T06:47:29.713Z,99.90
2018-07-11T06:49:57.947Z,99.90
2018-07-11T06:52:26.072Z,99.90
2018-07-11T06:54:54.437Z,99.90
2018-07-11T06:57:22.607Z,99.90
2018-07-11T06:59:50.747Z,99.90
2018-07-11T07:02:18.894Z,99.90
2018-07-11T07:04:47.047Z,99.90
2018-07-11T07:09:43.208Z,99.90
2018-07-11T07:12:11.331Z,99.90
2018-07-11T07:14:39.475Z,99.90
2018-07-11T07:17:07.596Z,99.90
2018-07-11T07:19:35.739Z,99.90
2018-07-11T07:22:03.875Z,99.90
2018-07-11T07:24:32.022Z,99.90
2018-07-11T07:27:00.184Z,99.90
2018-07-11T07:29:28.320Z,99.90
2018-07-11T07:31:56.471Z,99.90
2018-07-11T07:34:24.618Z,99.90
2018-07-11T07:36:52.784Z,99.90
2018-07-11T07:39:20.891Z,99.90
2018-07-11T07:41:49.083Z,99.90
2018-07-11T07:44:17.214Z,99.90
2018-07-11T07:49:18.875Z,99.90
2018-07-11T07:51:47.277Z,99.90
2018-07-11T07:56:43.802Z,99.90
2018-07-11T07:59:11.936Z,99.90
2018-07-11T08:01:40.063Z,99.90
2018-07-11T08:06:36.138Z,99.90
2018-07-11T08:09:04.658Z,99.90
2018-07-11T08:11:32.805Z,99.90
2018-07-11T08:14:00.930Z,99.90
2018-07-11T08:18:57.010Z,99.90
2018-07-11T08:21:25.166Z,99.90
2018-07-11T08:24:04.800Z,99.90
2018-07-11T08:26:44.573Z,99.90
2018-07-11T08:31:38.190Z,99.90
2018-07-11T08:34:17.807Z,99.90
2018-07-11T08:36:58.486Z,99.90
2018-07-11T08:40:39.215Z,99.90
2018-07-11T08:43:18.899Z,99.90
2018-07-11T08:45:56.855Z,99.90
2018-07-11T08:48:36.119Z,99.90
2018-07-11T08:55:24.051Z,99.90
2018-07-11T08:58:46.571Z,99.90
2018-07-11T09:03:35.774Z,99.90
2018-07-11T09:06:29.595Z,99.90
2018-07-11T09:12:14.790Z,99.90
2018-07-11T09:15:27.967Z,99.90
2018-07-11T09:22:40.156Z,99.90
2018-07-11T09:25:08.305Z,99.90
2018-07-11T09:27:36.472Z,99.90
2018-07-11T09:30:04.614Z,99.90
2018-07-11T09:35:00.655Z,99.90
2018-07-11T09:39:56.878Z,99.90
2018-07-11T09:42:25.046Z,99.90
2018-07-11T09:44:53.168Z,99.90
2018-07-11T09:47:27.967Z,99.90
2018-07-11T09:52:24.101Z,99.90
2018-07-11T09:54:52.472Z,99.90
2018-07-11T09:57:20.764Z,99.90
2018-07-11T10:02:16.894Z,99.90
2018-07-11T10:04:45.031Z,99.90
2018-07-11T10:07:13.554Z,99.90
2018-07-11T10:09:41.826Z,99.90
2018-07-11T10:12:10.032Z,99.90
2018-07-11T10:14:38.198Z,99.90
2018-07-11T10:17:06.343Z,99.90
2018-07-11T10:19:34.479Z,99.90
2018-07-11T10:22:02.618Z,99.90
2018-07-11T10:24:30.781Z,99.90
2018-07-11T10:26:58.909Z,99.90
2018-07-11T10:29:27.323Z,99.90
2018-07-11T10:31:55.414Z,99.90
2018-07-11T10:34:23.554Z,99.90
2018-07-11T10:36:51.692Z,99.90
2018-07-11T10:39:19.817Z,99.90
2018-07-11T10:44:15.920Z,99.90
2018-07-11T10:46:44.119Z,99.90
2018-07-11T10:49:12.259Z,99.90
2018-07-11T10:51:40.399Z,99.90
2018-07-11T10:54:08.578Z,99.90
2018-07-11T10:56:36.718Z,99.90
2018-07-11T10:59:04.853Z,99.90
2018-07-11T11:01:33.115Z,99.90
2018-07-11T11:04:01.194Z,99.90
2018-07-11T11:06:29.322Z,99.90
2018-07-11T11:08:57.450Z,99.90
2018-07-11T11:11:25.563Z,99.90
2018-07-11T11:16:21.759Z,99.90
2018-07-11T11:18:49.891Z,99.90
2018-07-11T11:21:18.055Z,99.90
2018-07-11T11:26:14.063Z,99.90
2018-07-11T11:28:42.199Z,99.90
2018-07-11T11:31:10.325Z,99.90
2018-07-11T11:33:38.456Z,99.90
2018-07-11T11:36:06.593Z,99.90
2018-07-11T11:38:34.730Z,99.90
2018-07-11T11:41:02.866Z,99.90
2018-07-11T11:43:31.028Z,99.90
2018-07-11T11:45:59.173Z,99.90
2018-07-11T11:48:27.317Z,99.90
2018-07-11T11:50:55.467Z,99.90
2018-07-11T11:53:23.602Z,99.90
2018-07-11T11:58:19.638Z,99.90
2018-07-11T12:03:15.721Z,99.90
2018-07-11T12:05:43.860Z,99.90
2018-07-11T12:13:08.004Z,99.90
2018-07-11T12:15:36.098Z,99.90
2018-07-11T12:18:04.373Z,99.90
2018-07-11T12:20:32.498Z,99.90
2018-07-11T12:23:00.628Z,99.90
2018-07-11T12:25:28.743Z,99.90
2018-07-11T12:27:56.878Z,99.90
2018-07-11T12:30:25.023Z,99.90
2018-07-11T12:32:53.176Z,99.90
2018-07-11T12:35:21.293Z,99.90
2018-07-11T12:37:49.480Z,99.90
2018-07-11T12:40:17.626Z,99.90
2018-07-11T12:42:45.770Z,99.90
2018-07-11T12:45:13.918Z,98.60
2018-07-11T12:50:15.583Z,99.80
2018-07-11T12:55:11.631Z,99.90
2018-07-11T13:00:07.742Z,99.90
2018-07-11T13:02:35.874Z,99.90
2018-07-11T13:05:04.002Z,99.90
2018-07-11T13:07:32.134Z,99.90
2018-07-11T13:10:00.454Z,99.90
2018-07-11T13:12:28.577Z,99.90
2018-07-11T13:14:56.710Z,97.80
2018-07-11T13:19:52.718Z,98.50
2018-07-11T13:22:20.846Z,96.30
2018-07-11T13:24:49.000Z,96.90
2018-07-11T13:27:17.131Z,93.80
2018-07-11T13:29:45.291Z,93.90
2018-07-11T13:32:13.411Z,95.60
2018-07-11T13:37:09.450Z,93.10
2018-07-11T13:44:33.451Z,90.30
2018-07-11T13:47:05.802Z,87.70
2018-07-11T13:49:33.960Z,89.10
2018-07-11T13:52:02.272Z,91.60
2018-07-11T13:54:30.426Z,91.90
2018-07-11T13:56:58.547Z,91.50
2018-07-11T13:59:26.690Z,92.30
2018-07-11T14:01:54.863Z,92.10
2018-07-11T14:04:23.090Z,93.60
2018-07-11T14:06:51.197Z,93.90
2018-07-11T14:09:19.342Z,93.00
2018-07-11T14:11:47.475Z,92.50
2018-07-11T14:16:43.537Z,93.10
2018-07-11T14:19:11.674Z,93.20
2018-07-11T14:21:39.803Z,94.10
2018-07-11T14:24:07.935Z,94.40
2018-07-11T14:26:36.062Z,94.30
2018-07-11T14:29:04.276Z,95.10
2018-07-11T14:36:33.270Z,95.70
2018-07-11T14:39:01.623Z,95.90
2018-07-11T14:41:29.837Z,96.10
2018-07-11T14:43:58.302Z,96.60
2018-07-11T14:46:28.121Z,97.40
2018-07-11T14:48:56.282Z,97.80
2018-07-11T14:51:24.805Z,97.80
2018-07-11T14:53:54.285Z,98.30
2018-07-11T14:56:22.480Z,99.00
2018-07-11T15:01:19.478Z,99.70
2018-07-11T15:03:47.636Z,99.90
2018-07-11T15:06:15.777Z,99.90
2018-07-11T15:08:44.059Z,99.90
2018-07-11T15:11:12.369Z,99.90
2018-07-11T15:13:40.608Z,99.90
2018-07-11T15:18:36.710Z,99.90
2018-07-11T15:21:05.207Z,99.90
2018-07-11T15:23:33.448Z,99.90
2018-07-11T15:26:01.595Z,99.90
2018-07-11T15:28:29.730Z,99.90
2018-07-11T15:30:57.996Z,99.90
2018-07-11T15:33:26.210Z,99.90
2018-07-11T15:35:54.507Z,99.90
2018-07-11T15:38:22.643Z,99.90
2018-07-11T15:40:51.249Z,99.90
2018-07-11T15:43:19.392Z,99.90
2018-07-11T15:45:47.529Z,99.90
2018-07-11T15:48:15.655Z,99.90
2018-07-11T15:50:43.810Z,99.90
2018-07-11T15:53:11.942Z,99.90
2018-07-11T15:55:40.117Z,99.90
2018-07-11T15:58:12.944Z,99.90
2018-07-11T16:00:42.251Z,99.90
2018-07-11T16:03:11.832Z,99.90
2018-07-11T16:05:41.857Z,99.90
2018-07-11T16:08:09.906Z,99.90
2018-07-11T16:10:47.337Z,99.90
2018-07-11T16:13:15.463Z,99.90
2018-07-11T16:15:45.015Z,99.90
2018-07-11T16:18:13.150Z,99.90
2018-07-11T16:20:41.291Z,99.90
2018-07-11T16:23:09.941Z,99.90
2018-07-11T16:25:39.231Z,99.90
2018-07-11T16:28:07.364Z,99.90
2018-07-11T16:30:36.052Z,99.90
2018-07-11T16:33:04.264Z,99.90
2018-07-11T16:35:32.751Z,99.90
2018-07-11T16:38:01.328Z,99.90
2018-07-11T16:40:30.329Z,99.90
2018-07-11T16:42:58.474Z,99.90
2018-07-11T16:45:26.658Z,99.90
2018-07-11T16:47:55.354Z,99.90
2018-07-11T16:50:24.136Z,99.90
2018-07-11T16:52:52.583Z,99.90
2018-07-11T16:55:20.727Z,99.90
2018-07-11T16:57:50.299Z,99.90
2018-07-11T17:00:21.711Z,99.90
2018-07-11T17:03:04.247Z,99.90
2018-07-11T17:05:37.966Z,99.90
2018-07-11T17:08:06.367Z,99.90
2018-07-11T17:13:13.132Z,99.90
2018-07-11T17:15:46.127Z,99.90
2018-07-11T17:18:21.350Z,99.90
2018-07-11T17:20:49.514Z,99.90
2018-07-11T17:23:17.648Z,99.90
2018-07-11T17:25:45.803Z,99.90
2018-07-11T17:33:13.066Z,99.90
2018-07-11T17:35:50.377Z,99.90
2018-07-11T17:40:50.891Z,99.90
2018-07-11T17:43:19.914Z,99.90
2018-07-11T17:50:47.341Z,99.90
2018-07-11T17:53:21.115Z,99.90
2018-07-11T17:58:31.137Z,99.90
2018-07-11T18:01:03.922Z,99.90
2018-07-11T18:03:41.228Z,99.90
2018-07-11T18:06:47.422Z,99.90
2018-07-11T18:11:51.438Z,99.90
2018-07-11T18:19:38.026Z,99.90
2018-07-11T18:22:19.610Z,99.90
2018-07-11T18:24:55.807Z,99.90
2018-07-11T18:27:34.347Z,99.90
2018-07-11T18:30:13.424Z,99.90
2018-07-11T18:32:49.467Z,99.90
2018-07-11T18:35:26.477Z,99.90
2018-07-11T18:37:59.903Z,99.90
2018-07-11T18:48:06.828Z,99.90
2018-07-11T18:50:43.086Z,99.90
2018-07-11T18:53:20.798Z,99.90
2018-07-11T18:59:39.950Z,99.90
2018-07-11T19:02:14.143Z,99.90
2018-07-11T19:04:53.919Z,99.90
2018-07-11T19:07:38.677Z,99.90
2018-07-11T19:10:06.960Z,99.90
2018-07-11T19:12:43.025Z,99.90
2018-07-11T19:15:17.244Z,99.90
2018-07-11T19:17:53.800Z,99.90
2018-07-11T19:20:32.322Z,99.90
2018-07-11T19:23:08.156Z,99.90
2018-07-11T19:25:51.157Z,99.90
2018-07-11T19:28:33.679Z,99.90
2018-07-11T19:31:09.532Z,99.90
2018-07-11T19:34:48.590Z,99.90
2018-07-11T19:37:52.207Z,99.90
2018-07-11T19:40:36.731Z,99.90
2018-07-11T19:44:11.758Z,99.90
2018-07-11T19:46:51.043Z,99.90
2018-07-11T19:49:30.549Z,99.90
2018-07-11T19:53:12.579Z,99.90
2018-07-11T19:55:55.182Z,99.90
2018-07-11T19:58:23.340Z,99.90
2018-07-11T20:00:51.535Z,99.90
2018-07-11T20:03:19.636Z,99.90
2018-07-11T20:08:15.831Z,99.90
2018-07-11T20:10:44.066Z,99.90
2018-07-11T20:13:12.214Z,99.90
2018-07-11T20:18:08.328Z,99.90
2018-07-11T20:20:36.505Z,99.90
2018-07-11T20:23:04.650Z,99.90
2018-07-11T20:25:32.779Z,99.90
2018-07-11T20:30:29.036Z,99.90
2018-07-11T20:32:57.158Z,99.90
2018-07-11T20:35:25.283Z,99.90
2018-07-11T20:37:53.442Z,99.90
2018-07-11T20:42:49.674Z,99.90
2018-07-11T20:45:17.807Z,99.90
2018-07-11T20:47:45.947Z,99.90
2018-07-11T20:50:14.092Z,99.90
2018-07-11T20:52:42.238Z,99.90
2018-07-11T20:55:10.533Z,99.90
2018-07-11T20:57:38.704Z,99.90
2018-07-11T21:00:18.216Z,99.90
2018-07-11T21:02:59.180Z,99.90
2018-07-11T21:06:14.196Z,99.90
2018-07-11T21:10:56.927Z,99.90
2018-07-11T21:15:41.857Z,99.90
2018-07-11T21:18:22.690Z,99.90
2018-07-11T21:23:19.035Z,99.90
2018-07-11T21:28:15.151Z,99.90
2018-07-11T21:30:43.287Z,99.90
2018-07-11T21:33:11.431Z,99.90
2018-07-11T21:38:07.525Z,99.90
2018-07-11T21:40:35.736Z,99.90
2018-07-11T21:43:03.834Z,99.90
2018-07-11T21:45:31.980Z,99.90
2018-07-11T21:48:00.116Z,99.90
2018-07-11T21:50:28.264Z,99.90
2018-07-11T21:52:56.398Z,99.90
2018-07-11T21:55:24.875Z,99.90
2018-07-11T21:57:53.003Z,99.90
2018-07-11T22:00:33.714Z,99.90
2018-07-11T22:03:01.855Z,99.90
2018-07-11T22:05:30.779Z,99.90
2018-07-11T22:10:27.131Z,99.90
2018-07-11T22:15:23.163Z,99.90
2018-07-11T22:18:02.899Z,99.90
2018-07-11T22:20:30.674Z,99.90
2018-07-11T22:22:57.878Z,99.90
2018-07-11T22:25:25.048Z,99.90
2018-07-11T22:27:52.214Z,99.90
2018-07-11T22:30:19.397Z,99.90
2018-07-11T22:35:14.188Z,99.90
2018-07-11T22:37:41.537Z,99.90
2018-07-11T22:40:08.895Z,99.90
2018-07-11T22:42:36.088Z,99.90
2018-07-11T22:45:03.268Z,99.90
2018-07-11T22:47:30.536Z,99.90
2018-07-11T22:49:58.827Z,99.90
2018-07-11T22:52:27.516Z,99.90
2018-07-11T22:54:54.980Z,99.90
2018-07-11T22:59:50.283Z,99.90
2018-07-11T23:02:17.636Z,99.90
2018-07-11T23:04:44.821Z,99.90
2018-07-11T23:07:11.984Z,99.90
2018-07-11T23:09:39.172Z,99.90
2018-07-11T23:12:06.638Z,99.90
2018-07-11T23:14:34.534Z,99.90
2018-07-11T23:19:30.162Z,99.90
2018-07-11T23:26:52.932Z,99.90
2018-07-11T23:29:20.336Z,99.90
2018-07-11T23:31:47.652Z,99.90
2018-07-11T23:36:42.282Z,99.90
2018-07-11T23:39:10.611Z,99.90
2018-07-11T23:41:37.795Z,99.90
2018-07-11T23:46:32.639Z,99.90
2018-07-11T23:48:59.802Z,99.90
2018-07-11T23:51:26.990Z,99.90
2018-07-11T23:53:54.150Z,99.90
2018-07-11T23:56:21.338Z,99.90
2018-07-11T23:58:48.515Z,99.90
